Time;durP1;ratioP1;P1;durP2;ratioP2;P2;SDS_P1;SDS_P2;PMS_P1;PMS_P2;Temp;Humidity;BMP_temperature;BMP_pressure;BME280_temperature;BME280_humidity;BME280_pressure;Samples;Min_cycle;Max_cycle;Signal;HPM_P1;HPM_P2
2024/01/21 00:01:06;;;;;;;6.20;3.87;;;;;;;;;;5058805;28;20687;-72
2024/01/21 00:03:31;;;;;;;7.70;4.00;;;;;;;;;;5041504;28;20232;-73
2024/01/21 00:05:57;;;;;;;4.70;3.00;;;;;;;;;;5057903;28;20223;-72
2024/01/21 00:08:22;;;;;;;4.60;2.80;;;;;;;;;;5058474;28;20692;-73
2024/01/21 00:10:47;;;;;;;6.67;3.10;;;;;;;;;;5062451;28;20239;-73
2024/01/21 00:13:12;;;;;;;4.40;2.70;;;;;;;;;;5045771;28;20217;-72
2024/01/21 00:15:38;;;;;;;6.03;2.90;;;;;;;;;;5064395;28;20232;-73
2024/01/21 00:18:03;;;;;;;4.20;2.80;;;;;;;;;;5067060;28;20231;-74
2024/01/21 00:20:30;;;;;;;5.57;2.67;;;;;;;;;;5049426;28;20311;-74
2024/01/21 00:22:56;;;;;;;5.47;2.80;;;;;;;;;;5048348;28;20228;-74
2024/01/21 00:25:22;;;;;;;5.00;3.20;;;;;;;;;;5065735;28;20228;-74
2024/01/21 00:27:47;;;;;;;4.20;2.77;;;;;;;;;;5048653;28;20240;-74
2024/01/21 00:30:13;;;;;;;5.33;3.10;;;;;;;;;;5049067;28;20235;-74
2024/01/21 00:32:38;;;;;;;4.97;2.87;;;;;;;;;;5066984;28;20234;-75
2024/01/21 00:35:04;;;;;;;5.20;3.00;;;;;;;;;;5048888;28;20221;-74
2024/01/21 00:37:29;;;;;;;5.20;2.90;;;;;;;;;;5048554;28;20293;-74
2024/01/21 00:39:55;;;;;;;6.37;2.70;;;;;;;;;;5032473;28;20263;-74
2024/01/21 00:42:20;;;;;;;4.73;2.70;;;;;;;;;;5067745;28;20216;-74
2024/01/21 00:44:45;;;;;;;4.63;2.50;;;;;;;;;;5048001;28;20233;-74
2024/01/21 00:47:11;;;;;;;5.20;2.60;;;;;;;;;;5049498;28;20785;-74
2024/01/21 00:49:38;;;;;;;3.90;2.30;;;;;;;;;;5065554;28;20295;-74
2024/01/21 00:52:04;;;;;;;4.07;2.50;;;;;;;;;;5066155;28;20215;-74
2024/01/21 00:54:29;;;;;;;3.43;2.27;;;;;;;;;;5048732;28;21001;-74
2024/01/21 00:56:55;;;;;;;3.00;2.10;;;;;;;;;;5048591;28;20224;-75
2024/01/21 00:59:20;;;;;;;3.23;2.10;;;;;;;;;;5048945;28;20241;-74
2024/01/21 01:01:45;;;;;;;3.27;2.10;;;;;;;;;;5065470;28;20221;-74
2024/01/21 01:04:11;;;;;;;3.50;2.10;;;;;;;;;;5048776;28;20232;-74
2024/01/21 01:06:36;;;;;;;3.07;2.00;;;;;;;;;;5031163;28;20843;-74
2024/01/21 01:09:01;;;;;;;4.13;2.00;;;;;;;;;;5048394;28;20238;-74
2024/01/21 01:11:27;;;;;;;3.53;2.20;;;;;;;;;;5030826;28;20223;-74
2024/01/21 01:13:53;;;;;;;3.20;1.97;;;;;;;;;;5031327;28;20462;-74
2024/01/21 01:16:18;;;;;;;3.13;2.07;;;;;;;;;;5047631;28;20267;-74
2024/01/21 01:18:43;;;;;;;3.27;1.90;;;;;;;;;;5047687;28;20302;-74
2024/01/21 01:21:12;;;;;;;2.83;2.10;;;;;;;;;;5048444;28;20220;-74
2024/01/21 01:23:37;;;;;;;3.10;2.27;;;;;;;;;;5047601;28;20274;-74
2024/01/21 01:26:02;;;;;;;5.13;2.40;;;;;;;;;;5031313;28;20691;-74
2024/01/21 01:28:28;;;;;;;4.40;2.67;;;;;;;;;;5046272;28;20303;-75
2024/01/21 01:30:53;;;;;;;5.57;2.87;;;;;;;;;;5032014;28;20219;-74
2024/01/21 01:33:19;;;;;;;6.10;2.97;;;;;;;;;;5048130;28;20248;-74
2024/01/21 01:35:44;;;;;;;8.57;3.93;;;;;;;;;;5033223;28;20638;-75
2024/01/21 01:38:12;;;;;;;6.83;3.50;;;;;;;;;;5033042;28;20229;-74
2024/01/21 01:40:37;;;;;;;6.57;3.80;;;;;;;;;;5047408;28;20237;-74
2024/01/21 01:43:03;;;;;;;3.73;2.20;;;;;;;;;;5047660;28;20220;-74
2024/01/21 01:45:29;;;;;;;5.27;2.57;;;;;;;;;;5047751;28;20228;-74
2024/01/21 01:47:54;;;;;;;4.57;2.90;;;;;;;;;;5049579;28;20224;-74
2024/01/21 01:50:20;;;;;;;5.47;2.50;;;;;;;;;;5052351;28;20304;-74
2024/01/21 01:52:45;;;;;;;5.97;2.90;;;;;;;;;;5034266;28;20228;-74
2024/01/21 01:55:10;;;;;;;6.13;3.00;;;;;;;;;;5051421;28;20225;-75
2024/01/21 01:57:36;;;;;;;4.77;2.73;;;;;;;;;;5036161;28;20227;-74
2024/01/21 02:00:01;;;;;;;4.13;2.57;;;;;;;;;;5047945;28;20315;-74
2024/01/21 02:02:26;;;;;;;4.23;2.57;;;;;;;;;;5066166;28;20230;-74
2024/01/21 02:04:52;;;;;;;4.47;2.80;;;;;;;;;;5047558;28;20228;-74
2024/01/21 02:07:17;;;;;;;5.00;2.60;;;;;;;;;;5031040;28;20232;-74
2024/01/21 02:09:42;;;;;;;6.60;3.50;;;;;;;;;;5045961;28;20228;-75
2024/01/21 02:12:08;;;;;;;16.27;6.37;;;;;;;;;;5047733;28;21084;-75
2024/01/21 02:14:33;;;;;;;52.13;17.40;;;;;;;;;;5063179;28;20835;-74
2024/01/21 02:16:59;;;;;;;24.57;9.00;;;;;;;;;;5047656;28;20251;-74
2024/01/21 02:19:30;;;;;;;18.73;7.63;;;;;;;;;;5046805;28;20236;-74
2024/01/21 02:21:55;;;;;;;182.90;48.20;;;;;;;;;;5062603;28;20224;-75
2024/01/21 02:24:21;;;;;;;38.13;13.00;;;;;;;;;;5029921;28;20228;-74
2024/01/21 02:26:48;;;;;;;22.03;8.13;;;;;;;;;;5024880;28;20216;-74
2024/01/21 02:29:13;;;;;;;48.70;18.00;;;;;;;;;;5046308;28;20221;-74
2024/01/21 02:31:38;;;;;;;37.50;14.17;;;;;;;;;;5044633;28;20852;-74
2024/01/21 02:34:04;;;;;;;27.33;11.23;;;;;;;;;;5044330;28;20889;-74
2024/01/21 02:36:30;;;;;;;13.43;5.47;;;;;;;;;;5058058;28;20908;-73
2024/01/21 02:38:56;;;;;;;5.43;3.27;;;;;;;;;;5031434;28;20713;-72
2024/01/21 02:41:22;;;;;;;12.13;5.63;;;;;;;;;;5034515;28;20260;-74
2024/01/21 02:43:47;;;;;;;15.83;7.33;;;;;;;;;;5044262;28;20229;-76
2024/01/21 02:46:12;;;;;;;7.57;4.40;;;;;;;;;;5044114;28;20252;-75
2024/01/21 02:48:38;;;;;;;16.00;7.20;;;;;;;;;;5042291;28;20613;-75
2024/01/21 02:51:03;;;;;;;24.30;10.30;;;;;;;;;;5063761;28;20229;-74
2024/01/21 02:53:28;;;;;;;18.90;8.53;;;;;;;;;;5046425;28;20718;-74
2024/01/21 02:55:54;;;;;;;10.57;5.03;;;;;;;;;;5044631;28;20263;-74
2024/01/21 02:58:19;;;;;;;10.03;5.23;;;;;;;;;;5043539;28;20612;-75
2024/01/21 03:00:44;;;;;;;8.97;4.30;;;;;;;;;;5044234;28;20253;-75
2024/01/21 03:03:10;;;;;;;29.03;12.10;;;;;;;;;;5044020;28;20267;-75
2024/01/21 03:05:36;;;;;;;19.97;8.60;;;;;;;;;;5043780;28;20232;-75
2024/01/21 03:08:01;;;;;;;15.73;6.43;;;;;;;;;;5027347;28;20217;-75
2024/01/21 03:10:26;;;;;;;20.07;8.93;;;;;;;;;;5045014;28;20240;-75
2024/01/21 03:12:52;;;;;;;20.80;9.33;;;;;;;;;;5046260;28;20715;-75
2024/01/21 03:15:17;;;;;;;10.90;5.63;;;;;;;;;;5045768;28;20224;-75
2024/01/21 03:17:42;;;;;;;56.20;23.77;;;;;;;;;;5062489;28;20232;-75
2024/01/21 03:20:08;;;;;;;21.77;9.83;;;;;;;;;;5063650;28;20232;-75
2024/01/21 03:22:34;;;;;;;15.20;7.50;;;;;;;;;;5045894;28;20220;-75
2024/01/21 03:24:59;;;;;;;23.10;11.23;;;;;;;;;;5044648;28;20755;-74
2024/01/21 03:27:25;;;;;;;23.10;11.30;;;;;;;;;;5029117;28;20258;-75
2024/01/21 03:29:50;;;;;;;16.17;7.67;;;;;;;;;;5062663;28;20229;-75
2024/01/21 03:32:16;;;;;;;17.23;8.83;;;;;;;;;;5021877;28;20220;-75
2024/01/21 03:34:42;;;;;;;18.50;7.70;;;;;;;;;;5026380;28;20255;-75
2024/01/21 03:37:08;;;;;;;27.87;13.40;;;;;;;;;;5062314;28;20301;-75
2024/01/21 03:39:33;;;;;;;23.17;10.03;;;;;;;;;;5044984;28;20243;-75
2024/01/21 03:41:58;;;;;;;34.93;15.77;;;;;;;;;;5063570;28;20686;-75
2024/01/21 03:44:24;;;;;;;29.23;14.10;;;;;;;;;;5044328;28;20370;-75
2024/01/21 03:46:49;;;;;;;25.47;12.63;;;;;;;;;;5017991;28;20224;-75
2024/01/21 03:49:14;;;;;;;22.70;11.60;;;;;;;;;;5031694;28;20373;-74
2024/01/21 03:51:40;;;;;;;28.77;13.77;;;;;;;;;;5032591;28;20240;-75
2024/01/21 03:54:05;;;;;;;22.77;9.73;;;;;;;;;;5032517;28;20228;-75
2024/01/21 03:56:31;;;;;;;17.77;8.27;;;;;;;;;;5067389;28;20220;-75
2024/01/21 03:58:56;;;;;;;16.63;8.07;;;;;;;;;;5066723;28;20769;-75
2024/01/21 04:01:21;;;;;;;17.43;7.90;;;;;;;;;;5067072;28;20951;-76
2024/01/21 04:03:47;;;;;;;13.73;6.90;;;;;;;;;;5064745;28;20284;-76
2024/01/21 04:06:12;;;;;;;13.73;7.70;;;;;;;;;;5033944;28;20544;-75
2024/01/21 04:08:37;;;;;;;13.30;7.93;;;;;;;;;;5032573;28;20716;-76
2024/01/21 04:11:03;;;;;;;12.10;6.90;;;;;;;;;;5065929;28;20240;-74
2024/01/21 04:13:28;;;;;;;17.70;8.83;;;;;;;;;;5048643;28;20235;-74
2024/01/21 04:15:53;;;;;;;14.33;8.30;;;;;;;;;;5048485;28;20774;-75
2024/01/21 04:18:19;;;;;;;9.97;6.43;;;;;;;;;;5043329;28;20221;-74
2024/01/21 04:20:44;;;;;;;6.50;3.90;;;;;;;;;;5048541;28;20256;-75
2024/01/21 04:23:09;;;;;;;9.10;4.50;;;;;;;;;;5049317;28;20216;-74
2024/01/21 04:25:35;;;;;;;6.80;4.00;;;;;;;;;;5030011;28;20217;-75
2024/01/21 04:28:01;;;;;;;8.83;4.10;;;;;;;;;;5026422;28;20220;-76
2024/01/21 04:30:28;;;;;;;7.07;3.77;;;;;;;;;;5036315;28;20240;-76
2024/01/21 04:32:54;;;;;;;8.90;4.10;;;;;;;;;;5030880;28;20312;-75
2024/01/21 04:35:20;;;;;;;11.07;4.60;;;;;;;;;;5032129;28;20528;-76
2024/01/21 04:37:45;;;;;;;14.07;5.10;;;;;;;;;;5049310;28;20240;-76
2024/01/21 04:40:11;;;;;;;7.60;3.60;;;;;;;;;;5048536;28;20239;-76
2024/01/21 04:42:36;;;;;;;7.63;3.53;;;;;;;;;;5022102;28;20417;-75
2024/01/21 04:45:02;;;;;;;7.73;3.70;;;;;;;;;;5050132;28;20228;-76
2024/01/21 04:47:28;;;;;;;11.13;3.80;;;;;;;;;;5048235;28;20225;-76
2024/01/21 04:49:53;;;;;;;7.50;3.10;;;;;;;;;;5065905;28;20236;-76
2024/01/21 04:52:19;;;;;;;5.47;3.27;;;;;;;;;;5058707;28;20228;-77
2024/01/21 04:54:44;;;;;;;7.13;3.00;;;;;;;;;;5047134;28;20603;-74
2024/01/21 04:57:09;;;;;;;6.50;3.20;;;;;;;;;;5064926;28;20225;-76
2024/01/21 04:59:35;;;;;;;6.40;3.30;;;;;;;;;;5044454;28;20264;-75
2024/01/21 05:02:00;;;;;;;4.90;3.00;;;;;;;;;;5022420;28;20224;-76
2024/01/21 05:04:28;;;;;;;5.80;3.10;;;;;;;;;;5032665;28;20237;-76
2024/01/21 05:06:53;;;;;;;6.60;2.70;;;;;;;;;;5026194;28;20259;-74
2024/01/21 05:09:19;;;;;;;6.77;3.30;;;;;;;;;;5022794;28;20264;-73
2024/01/21 05:11:44;;;;;;;5.93;3.13;;;;;;;;;;5066661;28;20224;-76
2024/01/21 05:14:10;;;;;;;6.87;3.00;;;;;;;;;;5065895;28;20244;-77
2024/01/21 05:16:40;;;;;;;6.33;3.10;;;;;;;;;;5031774;28;20752;-77
2024/01/21 05:19:05;;;;;;;7.00;3.27;;;;;;;;;;5067526;28;20228;-77
2024/01/21 05:21:31;;;;;;;6.60;3.70;;;;;;;;;;5049036;28;20752;-76
2024/01/21 05:23:56;;;;;;;9.17;3.87;;;;;;;;;;5065202;28;20680;-75
2024/01/21 05:26:21;;;;;;;8.23;4.00;;;;;;;;;;5049316;28;20224;-75
2024/01/21 05:28:47;;;;;;;9.77;4.40;;;;;;;;;;5032021;28;20229;-77
2024/01/21 05:31:12;;;;;;;10.67;4.50;;;;;;;;;;5066808;28;20237;-77
2024/01/21 05:33:40;;;;;;;9.07;4.50;;;;;;;;;;5048207;28;20220;-77
2024/01/21 05:36:05;;;;;;;9.63;4.83;;;;;;;;;;5049388;28;20290;-77
2024/01/21 05:38:31;;;;;;;10.77;4.73;;;;;;;;;;5031470;28;20253;-77
2024/01/21 05:40:56;;;;;;;12.67;4.60;;;;;;;;;;5048936;28;20237;-76
2024/01/21 05:43:21;;;;;;;10.03;4.97;;;;;;;;;;5048295;28;20228;-77
2024/01/21 05:45:46;;;;;;;9.93;4.70;;;;;;;;;;5066456;28;20231;-77
2024/01/21 05:48:12;;;;;;;9.07;4.60;;;;;;;;;;5066329;28;20224;-76
2024/01/21 05:50:37;;;;;;;9.07;4.60;;;;;;;;;;5031538;28;20225;-76
2024/01/21 05:53:05;;;;;;;12.17;4.87;;;;;;;;;;5031634;28;20231;-76
2024/01/21 05:55:31;;;;;;;10.17;4.70;;;;;;;;;;5065615;28;20315;-76
2024/01/21 05:57:56;;;;;;;11.97;5.07;;;;;;;;;;5047335;28;20327;-76
2024/01/21 06:00:23;;;;;;;10.23;5.17;;;;;;;;;;5033438;28;20232;-76
2024/01/21 06:02:48;;;;;;;12.40;5.40;;;;;;;;;;5048557;28;20231;-76
2024/01/21 06:05:13;;;;;;;13.10;5.40;;;;;;;;;;5048285;28;20222;-76
2024/01/21 06:07:39;;;;;;;11.13;5.40;;;;;;;;;;5031006;28;20651;-76
2024/01/21 06:10:04;;;;;;;11.93;5.80;;;;;;;;;;5065732;28;20620;-74
2024/01/21 06:12:30;;;;;;;10.90;5.17;;;;;;;;;;5021596;28;20307;-74
2024/01/21 06:14:55;;;;;;;10.50;5.07;;;;;;;;;;5048529;28;20229;-75
2024/01/21 06:17:20;;;;;;;11.33;5.50;;;;;;;;;;5047124;28;20227;-74
2024/01/21 06:19:46;;;;;;;10.47;5.30;;;;;;;;;;5046457;28;20235;-76
2024/01/21 06:22:11;;;;;;;10.67;5.33;;;;;;;;;;5062927;28;20221;-76
2024/01/21 06:24:36;;;;;;;11.80;5.60;;;;;;;;;;5030641;28;20244;-76
2024/01/21 06:27:02;;;;;;;11.30;5.70;;;;;;;;;;5047405;28;20328;-75
2024/01/21 06:29:28;;;;;;;11.00;5.57;;;;;;;;;;5064964;28;20290;-76
2024/01/21 06:31:53;;;;;;;12.70;6.17;;;;;;;;;;5030073;28;20682;-76
2024/01/21 06:34:18;;;;;;;11.70;5.63;;;;;;;;;;5064081;28;20233;-76
2024/01/21 06:36:44;;;;;;;12.43;6.10;;;;;;;;;;5029832;28;20224;-75
2024/01/21 06:39:09;;;;;;;11.20;5.80;;;;;;;;;;5062303;28;20901;-76
2024/01/21 06:41:34;;;;;;;11.30;6.03;;;;;;;;;;5064861;28;20777;-74
2024/01/21 06:44:00;;;;;;;12.80;6.07;;;;;;;;;;5064668;28;20697;-76
2024/01/21 06:46:25;;;;;;;14.67;6.70;;;;;;;;;;5030507;28;20919;-76
2024/01/21 06:48:50;;;;;;;16.53;7.00;;;;;;;;;;5064377;28;21213;-76
2024/01/21 06:51:32;;;;;;;14.37;6.23;;;;;;;;;;5046440;28;20229;-75
2024/01/21 06:54:00;;;;;;;15.27;6.87;;;;;;;;;;5046926;28;20282;-75
2024/01/21 06:56:25;;;;;;;12.53;6.40;;;;;;;;;;5045791;28;20227;-75
2024/01/21 06:58:51;;;;;;;14.47;6.43;;;;;;;;;;5046106;28;20232;-75
2024/01/21 07:01:17;;;;;;;13.23;6.47;;;;;;;;;;5065122;28;20271;-74
2024/01/21 07:03:42;;;;;;;15.17;6.33;;;;;;;;;;5063005;28;20613;-75
2024/01/21 07:06:08;;;;;;;12.57;6.47;;;;;;;;;;5064099;28;20223;-75
2024/01/21 07:08:34;;;;;;;12.23;6.40;;;;;;;;;;5045178;28;20258;-75
2024/01/21 07:10:59;;;;;;;11.20;5.93;;;;;;;;;;5029568;28;20228;-75
2024/01/21 07:13:25;;;;;;;12.53;6.03;;;;;;;;;;5047013;28;20227;-75
2024/01/21 07:15:51;;;;;;;11.77;6.30;;;;;;;;;;5043822;28;20282;-75
2024/01/21 07:18:16;;;;;;;12.20;6.50;;;;;;;;;;5044054;28;20251;-75
2024/01/21 07:20:42;;;;;;;13.13;6.77;;;;;;;;;;5029355;28;20240;-75
2024/01/21 07:23:07;;;;;;;13.30;5.83;;;;;;;;;;5049339;28;20255;-77
2024/01/21 07:25:32;;;;;;;9.87;5.30;;;;;;;;;;5070859;28;20248;-76
2024/01/21 07:27:58;;;;;;;10.07;5.40;;;;;;;;;;5050691;28;20350;-77
2024/01/21 07:30:23;;;;;;;11.73;5.13;;;;;;;;;;5051985;28;20316;-76
2024/01/21 07:32:48;;;;;;;11.70;5.37;;;;;;;;;;5051937;28;20239;-76
2024/01/21 07:35:14;;;;;;;12.17;5.30;;;;;;;;;;5052019;28;20306;-75
2024/01/21 07:37:39;;;;;;;13.37;6.27;;;;;;;;;;5069135;28;20224;-76
2024/01/21 07:40:05;;;;;;;9.67;5.27;;;;;;;;;;5069282;28;20319;-75
2024/01/21 07:42:30;;;;;;;14.27;5.97;;;;;;;;;;5036075;28;20362;-73
2024/01/21 07:44:56;;;;;;;10.40;5.17;;;;;;;;;;5028068;28;20288;-73
2024/01/21 07:47:21;;;;;;;10.07;5.20;;;;;;;;;;5050317;28;20333;-72
2024/01/21 07:49:46;;;;;;;11.83;5.40;;;;;;;;;;5050155;28;20610;-72
2024/01/21 07:52:12;;;;;;;18.50;7.90;;;;;;;;;;5050885;28;20223;-72
2024/01/21 07:54:37;;;;;;;9.37;5.10;;;;;;;;;;5050818;28;20709;-72
2024/01/21 07:57:03;;;;;;;9.73;5.17;;;;;;;;;;5069139;28;20212;-73
2024/01/21 07:59:28;;;;;;;9.77;5.53;;;;;;;;;;5049799;28;20233;-73
2024/01/21 08:01:53;;;;;;;9.27;5.20;;;;;;;;;;5068069;28;20224;-73
2024/01/21 08:04:18;;;;;;;9.00;5.10;;;;;;;;;;5068925;28;20243;-73
2024/01/21 08:06:44;;;;;;;9.40;4.90;;;;;;;;;;5067039;28;20247;-73
2024/01/21 08:09:09;;;;;;;28.53;10.27;;;;;;;;;;5068345;28;20235;-73
2024/01/21 08:11:35;;;;;;;22.10;8.80;;;;;;;;;;5069424;28;20217;-72
2024/01/21 08:14:00;;;;;;;20.63;7.87;;;;;;;;;;5067455;28;20254;-72
2024/01/21 08:16:26;;;;;;;18.43;7.50;;;;;;;;;;5049412;28;20220;-72
2024/01/21 08:18:51;;;;;;;11.83;5.77;;;;;;;;;;5068784;28;20323;-73
2024/01/21 08:21:16;;;;;;;10.57;5.10;;;;;;;;;;5067004;28;20235;-73
2024/01/21 08:23:42;;;;;;;10.27;5.07;;;;;;;;;;5066997;28;20228;-71
2024/01/21 08:26:07;;;;;;;9.47;4.80;;;;;;;;;;5066290;28;20299;-72
2024/01/21 08:28:33;;;;;;;10.93;5.67;;;;;;;;;;5048382;28;20220;-73
2024/01/21 08:30:58;;;;;;;26.77;9.47;;;;;;;;;;5051218;28;20220;-73
2024/01/21 08:33:23;;;;;;;22.70;8.33;;;;;;;;;;5051218;28;20254;-72
2024/01/21 08:35:49;;;;;;;55.67;15.30;;;;;;;;;;5026409;28;20319;-73
2024/01/21 08:38:14;;;;;;;46.47;12.53;;;;;;;;;;5066675;28;20241;-73
2024/01/21 08:40:39;;;;;;;102.90;23.73;;;;;;;;;;5048626;28;20430;-72
2024/01/21 08:43:05;;;;;;;40.10;12.70;;;;;;;;;;5048493;28;20315;-72
2024/01/21 08:45:30;;;;;;;24.43;9.40;;;;;;;;;;5031499;28;20673;-72
2024/01/21 08:47:55;;;;;;;28.30;10.90;;;;;;;;;;5047930;28;20228;-72
2024/01/21 08:50:21;;;;;;;25.80;9.83;;;;;;;;;;5041705;28;20621;-72
2024/01/21 08:52:46;;;;;;;11.43;5.47;;;;;;;;;;5065030;28;20232;-72
2024/01/21 08:55:11;;;;;;;37.57;13.93;;;;;;;;;;5030306;28;20217;-72
2024/01/21 08:57:38;;;;;;;24.87;9.73;;;;;;;;;;5064720;28;20245;-72
2024/01/21 09:00:04;;;;;;;19.10;8.63;;;;;;;;;;5063221;28;20279;-72
2024/01/21 09:02:30;;;;;;;30.87;12.10;;;;;;;;;;5063468;28;20248;-74
2024/01/21 09:04:56;;;;;;;15.23;7.23;;;;;;;;;;5026447;28;20275;-72
2024/01/21 09:07:21;;;;;;;15.47;7.20;;;;;;;;;;5031044;28;20248;-74
2024/01/21 09:09:46;;;;;;;15.60;7.33;;;;;;;;;;5028278;28;20229;-73
2024/01/21 09:12:14;;;;;;;14.60;6.90;;;;;;;;;;5028587;28;20728;-73
2024/01/21 09:14:41;;;;;;;11.37;5.03;;;;;;;;;;5030409;28;20240;-73
2024/01/21 09:17:06;;;;;;;10.27;5.57;;;;;;;;;;5030323;28;20220;-72
2024/01/21 09:19:31;;;;;;;13.33;6.40;;;;;;;;;;5047058;28;20232;-73
2024/01/21 09:21:57;;;;;;;26.20;10.13;;;;;;;;;;5045085;28;20232;-72
2024/01/21 09:24:22;;;;;;;9.17;4.73;;;;;;;;;;5046557;28;20229;-73
2024/01/21 09:26:47;;;;;;;16.50;8.13;;;;;;;;;;5064693;28;20316;-73
2024/01/21 09:29:13;;;;;;;12.20;5.67;;;;;;;;;;5046112;28;20220;-73
2024/01/21 09:31:38;;;;;;;10.27;5.43;;;;;;;;;;5064467;28;20327;-73
2024/01/21 09:34:03;;;;;;;9.67;4.30;;;;;;;;;;5046609;28;20316;-73
2024/01/21 09:36:29;;;;;;;5.70;3.60;;;;;;;;;;5046063;28;20273;-74
2024/01/21 09:38:54;;;;;;;8.73;4.60;;;;;;;;;;5046349;28;20232;-73
2024/01/21 09:41:20;;;;;;;6.97;4.27;;;;;;;;;;5030264;28;20301;-73
2024/01/21 09:43:45;;;;;;;17.60;7.50;;;;;;;;;;5065193;28;20266;-73
2024/01/21 09:46:11;;;;;;;18.60;7.67;;;;;;;;;;5031023;28;20224;-74
2024/01/21 09:48:36;;;;;;;9.03;4.30;;;;;;;;;;5045144;28;20250;-73
2024/01/21 09:51:02;;;;;;;9.13;5.07;;;;;;;;;;5063618;28;20298;-74
2024/01/21 09:53:27;;;;;;;10.00;5.23;;;;;;;;;;5047061;28;20454;-73
2024/01/21 09:55:54;;;;;;;10.93;6.07;;;;;;;;;;5046644;28;20216;-73
2024/01/21 09:58:19;;;;;;;7.63;4.40;;;;;;;;;;5046579;28;20243;-74
2024/01/21 10:00:44;;;;;;;7.20;4.10;;;;;;;;;;5046870;28;20260;-73
2024/01/21 10:03:10;;;;;;;7.23;4.17;;;;;;;;;;5064954;28;20221;-73
2024/01/21 10:05:35;;;;;;;13.40;6.60;;;;;;;;;;5064645;28;20647;-73
2024/01/21 10:08:01;;;;;;;9.93;5.17;;;;;;;;;;5046204;28;20240;-72
2024/01/21 10:10:26;;;;;;;9.70;5.17;;;;;;;;;;5064534;28;20650;-73
2024/01/21 10:12:52;;;;;;;9.53;4.90;;;;;;;;;;5064081;28;21071;-72
2024/01/21 10:15:18;;;;;;;10.17;5.03;;;;;;;;;;5047245;28;20244;-73
2024/01/21 10:17:43;;;;;;;12.83;5.67;;;;;;;;;;5046235;28;20218;-73
2024/01/21 10:20:09;;;;;;;8.97;5.00;;;;;;;;;;5029440;28;20243;-72
2024/01/21 10:22:35;;;;;;;12.33;6.73;;;;;;;;;;5020391;28;20296;-72
2024/01/21 10:25:03;;;;;;;9.67;5.37;;;;;;;;;;5046148;28;20790;-73
2024/01/21 10:27:28;;;;;;;12.57;6.00;;;;;;;;;;5029249;28;20244;-73
2024/01/21 10:29:53;;;;;;;13.37;6.37;;;;;;;;;;5061321;28;20717;-72
2024/01/21 10:32:20;;;;;;;10.03;5.23;;;;;;;;;;5045727;28;20213;-73
2024/01/21 10:34:48;;;;;;;11.10;5.63;;;;;;;;;;5043499;28;20229;-72
2024/01/21 10:37:15;;;;;;;11.03;5.60;;;;;;;;;;5044797;28;20214;-73
2024/01/21 10:39:40;;;;;;;10.37;5.23;;;;;;;;;;5061233;28;20297;-73
2024/01/21 10:42:05;;;;;;;10.70;5.50;;;;;;;;;;5062024;28;20791;-72
2024/01/21 10:44:31;;;;;;;12.57;5.93;;;;;;;;;;5028865;28;20231;-72
2024/01/21 10:46:57;;;;;;;14.07;6.60;;;;;;;;;;5028129;28;20223;-73
2024/01/21 10:49:22;;;;;;;13.40;6.60;;;;;;;;;;5044972;28;20233;-72
2024/01/21 10:51:48;;;;;;;13.73;6.73;;;;;;;;;;5061295;28;20292;-72
2024/01/21 10:54:13;;;;;;;14.17;6.63;;;;;;;;;;5045947;28;20793;-73
2024/01/21 10:56:39;;;;;;;12.70;6.67;;;;;;;;;;5040596;28;20265;-73
2024/01/21 10:59:05;;;;;;;11.87;6.43;;;;;;;;;;5028114;28;20390;-73
2024/01/21 11:01:30;;;;;;;12.40;6.30;;;;;;;;;;5064061;28;20304;-72
2024/01/21 11:04:10;;;;;;;11.30;6.00;;;;;;;;;;5042937;28;20761;-72
2024/01/21 11:06:35;;;;;;;12.43;6.07;;;;;;;;;;5045238;28;20228;-72
2024/01/21 11:09:02;;;;;;;13.33;6.57;;;;;;;;;;5061118;28;20236;-72
2024/01/21 11:11:27;;;;;;;13.73;6.80;;;;;;;;;;5044087;28;21041;-72
2024/01/21 11:13:54;;;;;;;11.57;5.63;;;;;;;;;;5044035;28;20317;-72
2024/01/21 11:16:26;;;;;;;19.07;9.43;;;;;;;;;;5061350;28;20690;-70
2024/01/21 11:18:51;;;;;;;21.33;9.77;;;;;;;;;;5061227;28;20221;-71
2024/01/21 11:21:20;;;;;;;19.53;9.73;;;;;;;;;;5044231;28;20212;-72
2024/01/21 11:23:47;;;;;;;13.13;6.40;;;;;;;;;;5042924;28;20240;-72
2024/01/21 11:26:21;;;;;;;15.73;7.73;;;;;;;;;;5045040;28;20995;-72
2024/01/21 11:28:47;;;;;;;19.27;9.70;;;;;;;;;;5061219;28;20737;-72
2024/01/21 11:31:12;;;;;;;13.57;7.20;;;;;;;;;;5061874;28;20251;-72
2024/01/21 11:33:38;;;;;;;22.40;10.03;;;;;;;;;;5027492;28;20217;-72
2024/01/21 11:36:04;;;;;;;17.83;8.40;;;;;;;;;;5028561;28;20216;-73
2024/01/21 11:38:29;;;;;;;20.27;9.33;;;;;;;;;;5063235;28;20232;-73
2024/01/21 11:41:02;;;;;;;26.33;11.07;;;;;;;;;;5044491;28;20237;-72
2024/01/21 11:43:28;;;;;;;20.73;9.60;;;;;;;;;;5027111;28;20311;-72
2024/01/21 11:45:54;;;;;;;12.43;6.60;;;;;;;;;;5043713;28;20351;-72
2024/01/21 11:48:19;;;;;;;13.33;6.33;;;;;;;;;;5061834;28;20220;-72
2024/01/21 11:50:44;;;;;;;11.43;6.20;;;;;;;;;;5061497;28;20627;-73
2024/01/21 11:53:10;;;;;;;45.73;16.37;;;;;;;;;;5062774;28;20720;-73
2024/01/21 11:55:35;;;;;;;33.67;12.33;;;;;;;;;;5044189;28;20227;-72
2024/01/21 11:58:00;;;;;;;56.27;17.83;;;;;;;;;;5045277;28;20214;-73
2024/01/21 12:00:25;;;;;;;95.90;30.40;;;;;;;;;;5044138;28;20240;-73
2024/01/21 12:02:51;;;;;;;27.13;11.33;;;;;;;;;;5044297;28;20236;-73
2024/01/21 12:05:17;;;;;;;40.13;15.93;;;;;;;;;;5063285;28;20228;-73
2024/01/21 12:07:42;;;;;;;24.20;11.07;;;;;;;;;;5028197;28;20228;-73
2024/01/21 12:10:09;;;;;;;16.37;8.07;;;;;;;;;;5064365;28;20267;-72
2024/01/21 12:12:36;;;;;;;182.13;57.80;;;;;;;;;;5063447;28;20237;-72
2024/01/21 12:15:02;;;;;;;15.23;7.80;;;;;;;;;;5065657;28;20230;-71
2024/01/21 12:17:27;;;;;;;50.17;19.33;;;;;;;;;;5047912;28;20225;-72
2024/01/21 12:19:52;;;;;;;119.37;40.63;;;;;;;;;;5046713;28;21129;-72
2024/01/21 12:22:23;;;;;;;29.83;12.87;;;;;;;;;;5030909;28;20225;-72
2024/01/21 12:24:53;;;;;;;15.90;7.17;;;;;;;;;;5044232;28;20362;-73
2024/01/21 12:27:18;;;;;;;17.43;7.63;;;;;;;;;;5049029;28;20233;-73
2024/01/21 12:29:44;;;;;;;16.77;8.00;;;;;;;;;;5065717;28;20235;-72
2024/01/21 12:32:09;;;;;;;13.57;6.63;;;;;;;;;;5032005;28;20224;-72
2024/01/21 12:34:34;;;;;;;15.80;7.87;;;;;;;;;;5047424;28;20788;-72
2024/01/21 12:37:00;;;;;;;18.27;8.37;;;;;;;;;;5048887;28;20224;-74
2024/01/21 12:39:25;;;;;;;14.73;7.50;;;;;;;;;;5065370;28;20236;-74
2024/01/21 12:41:50;;;;;;;13.37;6.73;;;;;;;;;;5064421;28;20237;-73
2024/01/21 12:44:16;;;;;;;13.10;6.93;;;;;;;;;;5066037;28;20654;-72
2024/01/21 12:46:43;;;;;;;16.10;8.03;;;;;;;;;;5064398;28;20225;-73
2024/01/21 12:49:08;;;;;;;13.37;7.00;;;;;;;;;;5065753;28;20232;-72
2024/01/21 12:51:35;;;;;;;13.60;6.73;;;;;;;;;;5047647;28;20239;-74
2024/01/21 12:54:00;;;;;;;13.50;7.10;;;;;;;;;;5042441;28;20233;-73
2024/01/21 12:56:26;;;;;;;14.57;7.30;;;;;;;;;;5064777;28;20229;-71
2024/01/21 12:58:51;;;;;;;15.83;7.23;;;;;;;;;;5041169;28;20229;-73
2024/01/21 13:01:17;;;;;;;14.57;7.40;;;;;;;;;;5063424;28;20236;-74
2024/01/21 13:03:43;;;;;;;14.43;7.10;;;;;;;;;;5046608;28;20247;-72
2024/01/21 13:06:08;;;;;;;17.80;7.93;;;;;;;;;;5064671;28;20221;-72
2024/01/21 13:08:34;;;;;;;17.17;7.47;;;;;;;;;;5063226;28;20335;-73
2024/01/21 13:10:59;;;;;;;16.70;8.00;;;;;;;;;;5028190;28;20251;-73
2024/01/21 13:13:25;;;;;;;18.57;8.90;;;;;;;;;;5045558;28;20228;-72
2024/01/21 13:15:50;;;;;;;19.37;8.90;;;;;;;;;;5028709;28;20240;-72
2024/01/21 13:18:17;;;;;;;18.63;8.70;;;;;;;;;;5045565;28;20246;-72
2024/01/21 13:20:42;;;;;;;18.10;9.23;;;;;;;;;;5044852;28;20319;-73
2024/01/21 13:23:07;;;;;;;18.40;9.13;;;;;;;;;;5029521;28;20331;-73
2024/01/21 13:25:35;;;;;;;21.03;9.43;;;;;;;;;;5064446;28;20646;-73
2024/01/21 13:28:13;;;;;;;18.33;9.37;;;;;;;;;;5046188;28;20213;-72
2024/01/21 13:30:45;;;;;;;19.57;9.40;;;;;;;;;;5045838;28;20604;-72
2024/01/21 13:33:14;;;;;;;19.00;9.57;;;;;;;;;;5044277;28;20251;-73
2024/01/21 13:35:43;;;;;;;19.43;9.13;;;;;;;;;;5046315;28;20316;-72
2024/01/21 13:38:09;;;;;;;18.57;8.87;;;;;;;;;;5064810;28;20228;-72
2024/01/21 13:40:34;;;;;;;22.00;8.53;;;;;;;;;;5064097;28;20233;-74
2024/01/21 13:42:59;;;;;;;19.07;9.17;;;;;;;;;;5061987;28;20221;-73
2024/01/21 13:45:25;;;;;;;21.03;9.10;;;;;;;;;;5046203;28;20236;-72
2024/01/21 13:47:50;;;;;;;17.57;8.57;;;;;;;;;;5064785;28;20259;-72
2024/01/21 13:50:15;;;;;;;20.70;9.43;;;;;;;;;;5065334;28;20342;-71
2024/01/21 13:52:41;;;;;;;21.07;9.63;;;;;;;;;;5044706;28;20257;-72
2024/01/21 13:55:08;;;;;;;18.70;8.53;;;;;;;;;;5063171;28;20286;-73
2024/01/21 13:57:36;;;;;;;21.40;9.37;;;;;;;;;;5046767;28;20250;-73
2024/01/21 14:00:02;;;;;;;16.70;8.03;;;;;;;;;;5045387;28;20737;-73
2024/01/21 14:02:27;;;;;;;19.13;8.70;;;;;;;;;;5029683;28;20294;-72
2024/01/21 14:04:52;;;;;;;19.43;8.70;;;;;;;;;;5063704;28;20256;-72
2024/01/21 14:07:18;;;;;;;24.37;10.57;;;;;;;;;;5045698;28;20272;-72
2024/01/21 14:09:43;;;;;;;23.87;11.53;;;;;;;;;;5045370;28;20323;-73
2024/01/21 14:12:08;;;;;;;19.73;8.77;;;;;;;;;;5047115;28;20698;-73
2024/01/21 14:14:34;;;;;;;37.60;16.27;;;;;;;;;;5028778;28;20229;-73
2024/01/21 14:16:59;;;;;;;22.87;10.77;;;;;;;;;;5046711;28;20220;-74
2024/01/21 14:19:24;;;;;;;27.43;12.13;;;;;;;;;;5046896;28;20982;-73
2024/01/21 14:21:50;;;;;;;43.00;17.53;;;;;;;;;;5064810;28;20709;-73
2024/01/21 14:24:15;;;;;;;22.00;10.10;;;;;;;;;;5045966;28;20722;-71